sensor_id;sensor_type;location;lat;lon;timestamp;pressure;altitude;pressure_sealevel;temperature;humidity
65760;BME280;52496;51.082;5.066;2024-03-02T00:29:16;99782.69;;;6.90;100.00
65760;BME280;52496;51.082;5.066;2024-03-02T00:31:49;99805.78;;;6.90;100.00
65760;BME280;52496;51.082;5.066;2024-03-02T00:34:19;99798.03;;;6.88;100.00
65760;BME280;52496;51.082;5.066;2024-03-02T00:36:51;99817.81;;;6.86;100.00
65760;BME280;52496;51.082;5.066;2024-03-02T00:39:22;99811.31;;;6.88;100.00
65760;BME280;52496;51.082;5.066;2024-03-02T00:41:54;99812.06;;;6.82;100.00
65760;BME280;52496;51.082;5.066;2024-03-02T00:44:30;99808.38;;;6.83;100.00
65760;BME280;52496;51.082;5.066;2024-03-02T00:47:07;99808.38;;;6.83;100.00
65760;BME280;52496;51.082;5.066;2024-03-02T00:49:48;99817.38;;;6.82;100.00
65760;BME280;52496;51.082;5.066;2024-03-02T00:52:18;99812.88;;;6.83;100.00
65760;BME280;52496;51.082;5.066;2024-03-02T00:54:58;99814.50;;;6.84;100.00
65760;BME280;52496;51.082;5.066;2024-03-02T00:57:30;99807.94;;;6.80;100.00
65760;BME280;52496;51.082;5.066;2024-03-02T01:00:05;99807.13;;;6.79;100.00
65760;BME280;52496;51.082;5.066;2024-03-02T01:02:40;99814.06;;;6.80;100.00
65760;BME280;52496;51.082;5.066;2024-03-02T01:05:10;99810.75;;;6.78;100.00
65760;BME280;52496;51.082;5.066;2024-03-02T01:07:41;99809.94;;;6.78;100.00
65760;BME280;52496;51.082;5.066;2024-03-02T01:10:11;99806.47;;;6.77;100.00
65760;BME280;52496;51.082;5.066;2024-03-02T01:12:42;99827.72;;;6.77;100.00
65760;BME280;52496;51.082;5.066;2024-03-02T01:15:12;99835.69;;;6.77;100.00
65760;BME280;52496;51.082;5.066;2024-03-02T01:17:43;99831.41;;;6.76;100.00
65760;BME280;52496;51.082;5.066;2024-03-02T01:20:25;99830.75;;;6.74;100.00
65760;BME280;52496;51.082;5.066;2024-03-02T01:22:55;99835.25;;;6.74;100.00
65760;BME280;52496;51.082;5.066;2024-03-02T01:25:25;99842.38;;;6.73;100.00
65760;BME280;52496;51.082;5.066;2024-03-02T01:27:56;99853.84;;;6.74;100.00
65760;BME280;52496;51.082;5.066;2024-03-02T01:30:26;99843.38;;;6.72;100.00
65760;BME280;52496;51.082;5.066;2024-03-02T01:32:57;99842.38;;;6.73;100.00
65760;BME280;52496;51.082;5.066;2024-03-02T01:35:30;99822.13;;;6.72;100.00
65760;BME280;52496;51.082;5.066;2024-03-02T01:38:01;99823.78;;;6.73;100.00
65760;BME280;52496;51.082;5.066;2024-03-02T01:40:36;99825.63;;;6.73;100.00
65760;BME280;52496;51.082;5.066;2024-03-02T01:43:07;99841.75;;;6.71;100.00
65760;BME280;52496;51.082;5.066;2024-03-02T01:45:46;99870.31;;;6.69;100.00
65760;BME280;52496;51.082;5.066;2024-03-02T01:48:18;99852.56;;;6.70;100.00
65760;BME280;52496;51.082;5.066;2024-03-02T01:50:50;99843.75;;;6.69;100.00
65760;BME280;52496;51.082;5.066;2024-03-02T01:53:21;99851.53;;;6.71;100.00
65760;BME280;52496;51.082;5.066;2024-03-02T01:55:52;99840.91;;;6.71;100.00
65760;BME280;52496;51.082;5.066;2024-03-02T01:58:22;99851.53;;;6.71;100.00
65760;BME280;52496;51.082;5.066;2024-03-02T02:00:53;99847.41;;;6.68;100.00
65760;BME280;52496;51.082;5.066;2024-03-02T02:03:24;99841.28;;;6.68;100.00
65760;BME280;52496;51.082;5.066;2024-03-02T02:05:54;99830.81;;;6.66;100.00
65760;BME280;52496;51.082;5.066;2024-03-02T02:08:26;99832.50;;;6.67;100.00
65760;BME280;52496;51.082;5.066;2024-03-02T02:11:02;99835.97;;;6.68;100.00
65760;BME280;52496;51.082;5.066;2024-03-02T02:13:32;99826.72;;;6.63;100.00
65760;BME280;52496;51.082;5.066;2024-03-02T02:16:07;99823.22;;;6.63;100.00
65760;BME280;52496;51.082;5.066;2024-03-02T02:19:05;99815.81;;;6.58;100.00
65760;BME280;52496;51.082;5.066;2024-03-02T02:21:36;99820.69;;;6.55;100.00
65760;BME280;52496;51.082;5.066;2024-03-02T02:24:07;99829.03;;;6.52;100.00
65760;BME280;52496;51.082;5.066;2024-03-02T02:26:38;99830.00;;;6.51;100.00
65760;BME280;52496;51.082;5.066;2024-03-02T02:29:08;99825.50;;;6.51;100.00
65760;BME280;52496;51.082;5.066;2024-03-02T02:31:39;99838.78;;;6.51;100.00
65760;BME280;52496;51.082;5.066;2024-03-02T02:34:10;99845.13;;;6.50;100.00
65760;BME280;52496;51.082;5.066;2024-03-02T02:36:50;99841.19;;;6.46;100.00
65760;BME280;52496;51.082;5.066;2024-03-02T02:39:21;99831.38;;;6.47;100.00
65760;BME280;52496;51.082;5.066;2024-03-02T02:41:52;99818.47;;;6.43;100.00
65760;BME280;52496;51.082;5.066;2024-03-02T02:44:23;99837.88;;;6.44;100.00
65760;BME280;52496;51.082;5.066;2024-03-02T02:46:54;99835.44;;;6.42;100.00
65760;BME280;52496;51.082;5.066;2024-03-02T02:49:24;99828.28;;;6.43;100.00
65760;BME280;52496;51.082;5.066;2024-03-02T02:51:55;99836.41;;;6.41;100.00
65760;BME280;52496;51.082;5.066;2024-03-02T02:54:26;99829.09;;;6.43;100.00
65760;BME280;52496;51.082;5.066;2024-03-02T02:56:56;99840.38;;;6.46;100.00
65760;BME280;52496;51.082;5.066;2024-03-02T02:59:27;99837.72;;;6.46;100.00
65760;BME280;52496;51.082;5.066;2024-03-02T03:01:57;99820.94;;;6.45;100.00
65760;BME280;52496;51.082;5.066;2024-03-02T03:04:29;99821.78;;;6.46;100.00
65760;BME280;52496;51.082;5.066;2024-03-02T03:07:00;99831.09;;;6.41;100.00
65760;BME280;52496;51.082;5.066;2024-03-02T03:09:32;99832.78;;;6.42;100.00
65760;BME280;52496;51.082;5.066;2024-03-02T03:12:02;99837.06;;;6.43;100.00
65760;BME280;52496;51.082;5.066;2024-03-02T03:14:33;99836.41;;;6.41;100.00
65760;BME280;52496;51.082;5.066;2024-03-02T03:17:04;99832.47;;;6.37;100.00
65760;BME280;52496;51.082;5.066;2024-03-02T03:19:34;99835.13;;;6.37;100.00
65760;BME280;52496;51.082;5.066;2024-03-02T03:22:06;99832.19;;;6.32;100.00
65760;BME280;52496;51.082;5.066;2024-03-02T03:24:39;99825.59;;;6.28;100.00
65760;BME280;52496;51.082;5.066;2024-03-02T03:27:09;99834.59;;;6.27;100.00
65760;BME280;52496;51.082;5.066;2024-03-02T03:29:41;99827.59;;;6.26;100.00
65760;BME280;52496;51.082;5.066;2024-03-02T03:32:11;99831.63;;;6.22;100.00
65760;BME280;52496;51.082;5.066;2024-03-02T03:34:43;99827.50;;;6.19;100.00
65760;BME280;52496;51.082;5.066;2024-03-02T03:37:14;99837.84;;;6.14;100.00
65760;BME280;52496;51.082;5.066;2024-03-02T03:39:45;99831.53;;;6.15;100.00
65760;BME280;52496;51.082;5.066;2024-03-02T03:42:16;99828.44;;;6.12;100.00
65760;BME280;52496;51.082;5.066;2024-03-02T03:44:46;99841.41;;;6.07;100.00
65760;BME280;52496;51.082;5.066;2024-03-02T03:47:17;99842.78;;;6.03;100.00
65760;BME280;52496;51.082;5.066;2024-03-02T03:50:03;99840.28;;;6.01;100.00
65760;BME280;52496;51.082;5.066;2024-03-02T03:52:37;99850.91;;;6.01;100.00
65760;BME280;52496;51.082;5.066;2024-03-02T03:55:13;99851.38;;;6.05;100.00
65760;BME280;52496;51.082;5.066;2024-03-02T03:58:15;99852.31;;;6.12;100.00
65760;BME280;52496;51.082;5.066;2024-03-02T04:00:46;99849.91;;;6.17;100.00
65760;BME280;52496;51.082;5.066;2024-03-02T04:03:17;99827.72;;;6.18;100.00
65760;BME280;52496;51.082;5.066;2024-03-02T04:06:09;99830.88;;;6.13;100.00
65760;BME280;52496;51.082;5.066;2024-03-02T04:09:08;99828.13;;;6.07;100.00
65760;BME280;52496;51.082;5.066;2024-03-02T04:11:39;99837.81;;;6.00;100.00
65760;BME280;52496;51.082;5.066;2024-03-02T04:14:09;99834.38;;;5.91;100.00
65760;BME280;52496;51.082;5.066;2024-03-02T04:16:44;99841.56;;;5.82;100.00
65760;BME280;52496;51.082;5.066;2024-03-02T04:19:15;99843.94;;;5.77;100.00
65760;BME280;52496;51.082;5.066;2024-03-02T04:21:45;99848.31;;;5.70;100.00
65760;BME280;52496;51.082;5.066;2024-03-02T04:24:16;99852.28;;;5.66;100.00
65760;BME280;52496;51.082;5.066;2024-03-02T04:26:46;99852.00;;;5.61;100.00
65760;BME280;52496;51.082;5.066;2024-03-02T04:29:21;99852.19;;;5.59;100.00
65760;BME280;52496;51.082;5.066;2024-03-02T04:31:52;99849.72;;;5.58;100.00
65760;BME280;52496;51.082;5.066;2024-03-02T04:34:27;99843.09;;;5.53;100.00
65760;BME280;52496;51.082;5.066;2024-03-02T04:36:57;99849.41;;;5.52;100.00
65760;BME280;52496;51.082;5.066;2024-03-02T04:39:28;99861.03;;;5.51;100.00
65760;BME280;52496;51.082;5.066;2024-03-02T04:42:07;99865.66;;;5.49;100.00
65760;BME280;52496;51.082;5.066;2024-03-02T04:44:38;99858.72;;;5.48;100.00
65760;BME280;52496;51.082;5.066;2024-03-02T04:47:27;99859.50;;;5.57;100.00
65760;BME280;52496;51.082;5.066;2024-03-02T04:49:57;99848.66;;;5.67;100.00
65760;BME280;52496;51.082;5.066;2024-03-02T04:52:28;99858.56;;;5.73;100.00
65760;BME280;52496;51.082;5.066;2024-03-02T04:54:59;99857.75;;;5.72;100.00
65760;BME280;52496;51.082;5.066;2024-03-02T04:57:48;99858.56;;;5.73;100.00
65760;BME280;52496;51.082;5.066;2024-03-02T05:00:27;99857.06;;;5.70;100.00
65760;BME280;52496;51.082;5.066;2024-03-02T05:02:58;99853.31;;;5.65;100.00
65760;BME280;52496;51.082;5.066;2024-03-02T05:05:28;99863.91;;;5.65;100.00
65760;BME280;52496;51.082;5.066;2024-03-02T05:07:59;99870.22;;;5.64;100.00
65760;BME280;52496;51.082;5.066;2024-03-02T05:10:29;99873.38;;;5.59;100.00
65760;BME280;52496;51.082;5.066;2024-03-02T05:13:01;99876.22;;;5.58;100.00
65760;BME280;52496;51.082;5.066;2024-03-02T05:15:32;99875.56;;;5.56;100.00
65760;BME280;52496;51.082;5.066;2024-03-02T05:18:03;99868.97;;;5.51;100.00
65760;BME280;52496;51.082;5.066;2024-03-02T05:20:35;99874.97;;;5.45;100.00
65760;BME280;52496;51.082;5.066;2024-03-02T05:23:23;99870.53;;;5.38;100.00
65760;BME280;52496;51.082;5.066;2024-03-02T05:25:54;99873.72;;;5.33;100.00
65760;BME280;52496;51.082;5.066;2024-03-02T05:28:25;99883.00;;;5.29;100.00
65760;BME280;52496;51.082;5.066;2024-03-02T05:30:59;99880.06;;;5.24;100.00
65760;BME280;52496;51.082;5.066;2024-03-02T05:33:30;99881.59;;;5.18;100.00
65760;BME280;52496;51.082;5.066;2024-03-02T05:36:08;99883.25;;;5.11;100.00
65760;BME280;52496;51.082;5.066;2024-03-02T05:38:59;99883.47;;;5.01;100.00
65760;BME280;52496;51.082;5.066;2024-03-02T05:41:30;99891.75;;;4.98;100.00
65760;BME280;52496;51.082;5.066;2024-03-02T05:44:01;99900.91;;;4.88;100.00
65760;BME280;52496;51.082;5.066;2024-03-02T05:46:32;99886.88;;;4.79;100.00
65760;BME280;52496;51.082;5.066;2024-03-02T05:49:02;99899.44;;;4.77;100.00
65760;BME280;52496;51.082;5.066;2024-03-02T05:51:33;99884.22;;;4.71;100.00
65760;BME280;52496;51.082;5.066;2024-03-02T05:54:03;99897.19;;;4.66;100.00
65760;BME280;52496;51.082;5.066;2024-03-02T05:56:34;99896.19;;;4.58;100.00
65760;BME280;52496;51.082;5.066;2024-03-02T05:59:05;99891.56;;;4.52;100.00
65760;BME280;52496;51.082;5.066;2024-03-02T06:01:45;99897.84;;;4.51;100.00
65760;BME280;52496;51.082;5.066;2024-03-02T06:04:25;99893.22;;;4.45;100.00
65760;BME280;52496;51.082;5.066;2024-03-02T06:06:55;99897.19;;;4.41;100.00
65760;BME280;52496;51.082;5.066;2024-03-02T06:09:26;99897.38;;;4.40;100.00
65760;BME280;52496;51.082;5.066;2024-03-02T06:11:56;99893.22;;;4.37;100.00
65760;BME280;52496;51.082;5.066;2024-03-02T06:14:31;99906.66;;;4.35;100.00
65760;BME280;52496;51.082;5.066;2024-03-02T06:17:02;99907.13;;;4.31;100.00
65760;BME280;52496;51.082;5.066;2024-03-02T06:19:32;99906.97;;;4.32;100.00
65760;BME280;52496;51.082;5.066;2024-03-02T06:22:13;99912.63;;;4.29;100.00
65760;BME280;52496;51.082;5.066;2024-03-02T06:24:43;99913.25;;;4.31;100.00
65760;BME280;52496;51.082;5.066;2024-03-02T06:27:13;99918.53;;;4.31;100.00
65760;BME280;52496;51.082;5.066;2024-03-02T06:29:47;99926.00;;;4.28;100.00
65760;BME280;52496;51.082;5.066;2024-03-02T06:32:18;99925.19;;;4.27;100.00
65760;BME280;52496;51.082;5.066;2024-03-02T06:34:49;99932.28;;;4.27;100.00
65760;BME280;52496;51.082;5.066;2024-03-02T06:37:42;99939.22;;;4.28;100.00
65760;BME280;52496;51.082;5.066;2024-03-02T06:40:52;99926.00;;;4.28;100.00
65760;BME280;52496;51.082;5.066;2024-03-02T06:46:50;99933.59;;;4.31;100.00
65760;BME280;52496;51.082;5.066;2024-03-02T06:49:22;99934.91;;;4.35;100.00
65760;BME280;52496;51.082;5.066;2024-03-02T06:51:53;99943.38;;;4.39;100.00
65760;BME280;52496;51.082;5.066;2024-03-02T06:54:24;99941.22;;;4.42;100.00
65760;BME280;52496;51.082;5.066;2024-03-02T06:56:54;99939.88;;;4.46;100.00
65760;BME280;52496;51.082;5.066;2024-03-02T06:59:43;99937.91;;;4.48;100.00
65760;BME280;52496;51.082;5.066;2024-03-02T07:02:13;99944.50;;;4.52;100.00
65760;BME280;52496;51.082;5.066;2024-03-02T07:04:47;99937.22;;;4.54;100.00
65760;BME280;52496;51.082;5.066;2024-03-02T07:07:17;99949.97;;;4.59;100.00
65760;BME280;52496;51.082;5.066;2024-03-02T07:09:48;99948.97;;;4.60;100.00
65760;BME280;52496;51.082;5.066;2024-03-02T07:12:20;99947.16;;;4.60;100.00
65760;BME280;52496;51.082;5.066;2024-03-02T07:14:51;99946.81;;;4.64;100.00
65760;BME280;52496;51.082;5.066;2024-03-02T07:17:42;99951.59;;;4.68;100.00
65760;BME280;52496;51.082;5.066;2024-03-02T07:20:13;99947.78;;;4.71;100.00
65760;BME280;52496;51.082;5.066;2024-03-02T07:22:43;99946.81;;;4.72;100.00
65760;BME280;52496;51.082;5.066;2024-03-02T07:25:14;99950.09;;;4.74;100.00
65760;BME280;52496;51.082;5.066;2024-03-02T07:27:44;99955.25;;;4.75;100.00
65760;BME280;52496;51.082;5.066;2024-03-02T07:30:15;99941.81;;;4.77;100.00
65760;BME280;52496;51.082;5.066;2024-03-02T07:32:50;99954.06;;;4.86;100.00
65760;BME280;52496;51.082;5.066;2024-03-02T07:35:32;99953.22;;;4.94;100.00
65760;BME280;52496;51.082;5.066;2024-03-02T07:38:03;99956.69;;;5.02;100.00
65760;BME280;52496;51.082;5.066;2024-03-02T07:40:34;99951.19;;;5.12;100.00
65760;BME280;52496;51.082;5.066;2024-03-02T07:43:05;99949.00;;;5.24;100.00
65760;BME280;52496;51.082;5.066;2024-03-02T07:45:35;99943.28;;;5.35;100.00
65760;BME280;52496;51.082;5.066;2024-03-02T07:48:06;99949.84;;;5.47;100.00
65760;BME280;52496;51.082;5.066;2024-03-02T07:50:37;99948.47;;;5.60;100.00
65760;BME280;52496;51.082;5.066;2024-03-02T07:53:17;99950.75;;;5.71;100.00
65760;BME280;52496;51.082;5.066;2024-03-02T07:55:48;99941.72;;;5.80;100.00
65760;BME280;52496;51.082;5.066;2024-03-02T07:58:31;99932.91;;;5.88;100.00
65760;BME280;52496;51.082;5.066;2024-03-02T08:01:30;99937.00;;;5.98;100.00
65760;BME280;52496;51.082;5.066;2024-03-02T08:04:01;99951.03;;;6.07;100.00
65760;BME280;52496;51.082;5.066;2024-03-02T08:06:34;99945.03;;;6.13;100.00
65760;BME280;52496;51.082;5.066;2024-03-02T08:09:04;99957.69;;;6.26;100.00
65760;BME280;52496;51.082;5.066;2024-03-02T08:11:39;99953.16;;;6.35;100.00
65760;BME280;52496;51.082;5.066;2024-03-02T08:14:10;99947.59;;;6.44;100.00
65760;BME280;52496;51.082;5.066;2024-03-02T08:16:41;99937.25;;;6.50;100.00
65760;BME280;52496;51.082;5.066;2024-03-02T08:19:11;99944.34;;;6.57;100.00
65760;BME280;52496;51.082;5.066;2024-03-02T08:21:43;99944.69;;;6.69;100.00
65760;BME280;52496;51.082;5.066;2024-03-02T08:24:13;99945.66;;;6.76;100.00
65760;BME280;52496;51.082;5.066;2024-03-02T08:26:47;99951.16;;;6.89;100.00
65760;BME280;52496;51.082;5.066;2024-03-02T08:29:17;99953.81;;;7.04;100.00
65760;BME280;52496;51.082;5.066;2024-03-02T08:31:48;99951.16;;;7.19;100.00
65760;BME280;52496;51.082;5.066;2024-03-02T08:34:19;99953.81;;;7.34;100.00
65760;BME280;52496;51.082;5.066;2024-03-02T08:36:50;99962.59;;;7.49;100.00
65760;BME280;52496;51.082;5.066;2024-03-02T08:39:20;99960.53;;;7.66;100.00
65760;BME280;52496;51.082;5.066;2024-03-02T08:41:51;99965.81;;;7.81;100.00
65760;BME280;52496;51.082;5.066;2024-03-02T08:44:22;99978.06;;;7.97;100.00
65760;BME280;52496;51.082;5.066;2024-03-02T08:46:52;99969.66;;;8.15;100.00
65760;BME280;52496;51.082;5.066;2024-03-02T08:49:23;99971.63;;;8.27;100.00
65760;BME280;52496;51.082;5.066;2024-03-02T08:51:54;99974.16;;;8.36;100.00
65760;BME280;52496;51.082;5.066;2024-03-02T08:54:27;99968.16;;;8.48;100.00
65760;BME280;52496;51.082;5.066;2024-03-02T08:56:58;99959.47;;;8.61;100.00
65760;BME280;52496;51.082;5.066;2024-03-02T08:59:28;99965.91;;;8.73;100.00
65760;BME280;52496;51.082;5.066;2024-03-02T09:01:59;99969.06;;;8.84;100.00
65760;BME280;52496;51.082;5.066;2024-03-02T09:04:29;99975.06;;;8.92;100.00
65760;BME280;52496;51.082;5.066;2024-03-02T09:07:00;99974.72;;;9.02;100.00
65760;BME280;52496;51.082;5.066;2024-03-02T09:09:30;99981.34;;;9.13;100.00
65760;BME280;52496;51.082;5.066;2024-03-02T09:12:02;99975.06;;;9.27;100.00
65760;BME280;52496;51.082;5.066;2024-03-02T09:14:32;99980.66;;;9.39;100.00
65760;BME280;52496;51.082;5.066;2024-03-02T09:17:03;99979.09;;;9.51;100.00
65760;BME280;52496;51.082;5.066;2024-03-02T09:19:34;99981.19;;;9.62;100.00
65760;BME280;52496;51.082;5.066;2024-03-02T09:22:04;99979.19;;;9.78;100.00
65760;BME280;52496;51.082;5.066;2024-03-02T09:24:35;99981.72;;;9.93;100.00
65760;BME280;52496;51.082;5.066;2024-03-02T09:27:06;99982.97;;;10.03;100.00
65760;BME280;52496;51.082;5.066;2024-03-02T09:29:37;99984.22;;;10.14;100.00
65760;BME280;52496;51.082;5.066;2024-03-02T09:32:08;99977.69;;;10.23;100.00
65760;BME280;52496;51.082;5.066;2024-03-02T09:34:42;99981.00;;;10.32;100.00
65760;BME280;52496;51.082;5.066;2024-03-02T09:37:13;99979.78;;;10.41;100.00
65760;BME280;52496;51.082;5.066;2024-03-02T09:39:44;99974.44;;;10.54;100.00
65760;BME280;52496;51.082;5.066;2024-03-02T09:42:15;99973.59;;;10.67;100.00
65760;BME280;52496;51.082;5.066;2024-03-02T09:44:46;99973.41;;;10.69;100.00
65760;BME280;52496;51.082;5.066;2024-03-02T09:47:17;99976.28;;;10.74;100.00
65760;BME280;52496;51.082;5.066;2024-03-02T09:49:47;99964.34;;;10.83;100.00
65760;BME280;52496;51.082;5.066;2024-03-02T09:52:19;99973.19;;;10.90;100.00
65760;BME280;52496;51.082;5.066;2024-03-02T09:54:49;99963.94;;;10.99;100.00
65760;BME280;52496;51.082;5.066;2024-03-02T09:57:20;99962.25;;;11.12;100.00
65760;BME280;52496;51.082;5.066;2024-03-02T09:59:50;99962.03;;;11.07;100.00
65760;BME280;52496;51.082;5.066;2024-03-02T10:02:20;99968.63;;;11.04;100.00
65760;BME280;52496;51.082;5.066;2024-03-02T10:04:51;99964.13;;;10.98;100.00
65760;BME280;52496;51.082;5.066;2024-03-02T10:07:22;99959.41;;;10.93;100.00
65760;BME280;52496;51.082;5.066;2024-03-02T10:09:52;99962.91;;;10.94;100.00
65760;BME280;52496;51.082;5.066;2024-03-02T10:12:23;99965.53;;;11.07;100.00
65760;BME280;52496;51.082;5.066;2024-03-02T10:15:03;99956.28;;;11.03;100.00
65760;BME280;52496;51.082;5.066;2024-03-02T10:17:34;99958.34;;;11.14;100.00
65760;BME280;52496;51.082;5.066;2024-03-02T10:20:24;99958.88;;;11.36;100.00
65760;BME280;52496;51.082;5.066;2024-03-02T10:22:56;99948.72;;;11.58;100.00
65760;BME280;52496;51.082;5.066;2024-03-02T10:25:36;99942.59;;;11.83;100.00
65760;BME280;52496;51.082;5.066;2024-03-02T10:28:07;99942.22;;;11.86;100.00
65760;BME280;52496;51.082;5.066;2024-03-02T10:30:37;99935.00;;;11.86;100.00
65760;BME280;52496;51.082;5.066;2024-03-02T10:33:08;99943.59;;;11.95;100.00
65760;BME280;52496;51.082;5.066;2024-03-02T10:35:39;99951.34;;;12.10;100.00
65760;BME280;52496;51.082;5.066;2024-03-02T10:38:11;99935.78;;;12.25;100.00
65760;BME280;52496;51.082;5.066;2024-03-02T10:40:46;99952.81;;;12.37;100.00
65760;BME280;52496;51.082;5.066;2024-03-02T10:43:18;99940.38;;;12.43;100.00
65760;BME280;52496;51.082;5.066;2024-03-02T10:45:51;99937.75;;;12.61;100.00
65760;BME280;52496;51.082;5.066;2024-03-02T10:48:24;99934.03;;;12.88;100.00
65760;BME280;52496;51.082;5.066;2024-03-02T10:50:55;99939.34;;;13.13;100.00
65760;BME280;52496;51.082;5.066;2024-03-02T10:53:29;99939.56;;;13.29;100.00
65760;BME280;52496;51.082;5.066;2024-03-02T10:56:01;99944.03;;;13.36;100.00
65760;BME280;52496;51.082;5.066;2024-03-02T10:58:32;99934.53;;;13.40;100.00
65760;BME280;52496;51.082;5.066;2024-03-02T11:01:07;99933.81;;;13.44;100.00
65760;BME280;52496;51.082;5.066;2024-03-02T11:03:40;99936.16;;;13.41;100.00
65760;BME280;52496;51.082;5.066;2024-03-02T11:06:11;99933.25;;;13.42;100.00
65760;BME280;52496;51.082;5.066;2024-03-02T11:08:46;99932.25;;;13.55;100.00
65760;BME280;52496;51.082;5.066;2024-03-02T11:11:22;99934.47;;;13.76;100.00
65760;BME280;52496;51.082;5.066;2024-03-02T11:14:01;99922.13;;;13.99;100.00
65760;BME280;52496;51.082;5.066;2024-03-02T11:16:38;99918.53;;;14.05;100.00
65760;BME280;52496;51.082;5.066;2024-03-02T11:19:13;99926.50;;;14.00;100.00
65760;BME280;52496;51.082;5.066;2024-03-02T11:21:45;99916.41;;;13.95;100.00
65760;BME280;52496;51.082;5.066;2024-03-02T11:26:57;99903.53;;;14.28;100.00
65760;BME280;52496;51.082;5.066;2024-03-02T11:32:19;99898.91;;;14.58;100.00
65760;BME280;52496;51.082;5.066;2024-03-02T11:34:51;99903.00;;;14.61;96.55
65760;BME280;52496;51.082;5.066;2024-03-02T11:37:22;99902.16;;;14.60;93.89
65760;BME280;52496;51.082;5.066;2024-03-02T11:39:52;99887.09;;;14.71;96.31
65760;BME280;52496;51.082;5.066;2024-03-02T11:42:23;99889.44;;;14.79;98.90
65760;BME280;52496;51.082;5.066;2024-03-02T11:44:56;99876.53;;;14.81;96.89
65760;BME280;52496;51.082;5.066;2024-03-02T11:47:31;99875.38;;;14.89;93.74
65760;BME280;52496;51.082;5.066;2024-03-02T11:50:01;99870.53;;;14.91;96.62
65760;BME280;52496;51.082;5.066;2024-03-02T11:52:33;99876.16;;;15.13;92.20
65760;BME280;52496;51.082;5.066;2024-03-02T11:55:04;99864.97;;;15.21;95.68
65760;BME280;52496;51.082;5.066;2024-03-02T11:57:35;99854.09;;;15.28;90.38
65760;BME280;52496;51.082;5.066;2024-03-02T12:00:17;99858.09;;;15.13;88.31
65760;BME280;52496;51.082;5.066;2024-03-02T12:03:08;99849.00;;;14.91;88.24
65760;BME280;52496;51.082;5.066;2024-03-02T12:05:39;99853.97;;;14.71;89.06
65760;BME280;52496;51.082;5.066;2024-03-02T12:08:11;99853.38;;;14.80;91.63
65760;BME280;52496;51.082;5.066;2024-03-02T12:10:42;99842.69;;;14.97;92.19
65760;BME280;52496;51.082;5.066;2024-03-02T12:13:13;99838.91;;;15.22;89.55
65760;BME280;52496;51.082;5.066;2024-03-02T12:15:44;99835.16;;;15.40;88.91
65760;BME280;52496;51.082;5.066;2024-03-02T12:18:14;99827.28;;;15.50;88.66
65760;BME280;52496;51.082;5.066;2024-03-02T12:20:45;99821.75;;;15.56;86.72
65760;BME280;52496;51.082;5.066;2024-03-02T12:23:15;99816.38;;;15.56;84.27
65760;BME280;52496;51.082;5.066;2024-03-02T12:25:46;99813.75;;;15.73;82.59
65760;BME280;52496;51.082;5.066;2024-03-02T12:28:17;99815.47;;;15.79;84.30
65760;BME280;52496;51.082;5.066;2024-03-02T12:30:48;99813.91;;;16.00;80.45
65760;BME280;52496;51.082;5.066;2024-03-02T12:33:19;99814.47;;;16.02;78.66
65760;BME280;52496;51.082;5.066;2024-03-02T12:35:50;99808.00;;;16.03;80.07
65760;BME280;52496;51.082;5.066;2024-03-02T12:38:20;99801.56;;;16.04;82.64
65760;BME280;52496;51.082;5.066;2024-03-02T12:40:51;99793.81;;;16.08;80.57
65760;BME280;52496;51.082;5.066;2024-03-02T12:43:22;99802.56;;;15.98;76.89
65760;BME280;52496;51.082;5.066;2024-03-02T12:45:54;99798.31;;;15.86;79.77
65760;BME280;52496;51.082;5.066;2024-03-02T12:48:26;99797.06;;;15.93;81.10
65760;BME280;52496;51.082;5.066;2024-03-02T12:50:56;99795.09;;;16.05;80.03
65760;BME280;52496;51.082;5.066;2024-03-02T12:53:27;99791.84;;;16.03;75.44
65760;BME280;52496;51.082;5.066;2024-03-02T12:55:58;99782.53;;;15.94;79.64
65760;BME280;52496;51.082;5.066;2024-03-02T12:58:28;99784.47;;;15.82;83.09
65760;BME280;52496;51.082;5.066;2024-03-02T13:01:08;99775.75;;;15.75;79.59
65760;BME280;52496;51.082;5.066;2024-03-02T13:03:39;99772.94;;;15.53;79.98
65760;BME280;52496;51.082;5.066;2024-03-02T13:06:09;99789.16;;;15.41;84.26
65760;BME280;52496;51.082;5.066;2024-03-02T13:08:40;99790.59;;;15.32;82.82
65760;BME280;52496;51.082;5.066;2024-03-02T13:11:11;99782.81;;;15.19;80.89
65760;BME280;52496;51.082;5.066;2024-03-02T13:13:42;99778.03;;;15.09;84.97
65760;BME280;52496;51.082;5.066;2024-03-02T13:16:12;99779.91;;;15.08;81.53
65760;BME280;52496;51.082;5.066;2024-03-02T13:18:44;99780.72;;;15.09;81.24
65760;BME280;52496;51.082;5.066;2024-03-02T13:21:15;99781.13;;;15.29;84.45
65760;BME280;52496;51.082;5.066;2024-03-02T13:23:45;99779.22;;;15.58;86.80
65760;BME280;52496;51.082;5.066;2024-03-02T13:26:16;99766.84;;;15.74;83.65
65760;BME280;52496;51.082;5.066;2024-03-02T13:28:47;99761.53;;;15.96;80.69
65760;BME280;52496;51.082;5.066;2024-03-02T13:31:17;99762.75;;;16.22;76.22
65760;BME280;52496;51.082;5.066;2024-03-02T13:33:48;99756.66;;;16.32;79.68
65760;BME280;52496;51.082;5.066;2024-03-02T13:36:18;99756.00;;;16.25;80.21
65760;BME280;52496;51.082;5.066;2024-03-02T13:38:49;99747.56;;;16.16;79.37
65760;BME280;52496;51.082;5.066;2024-03-02T13:41:20;99752.59;;;16.13;78.96
65760;BME280;52496;51.082;5.066;2024-03-02T13:43:51;99745.44;;;16.01;80.39
65760;BME280;52496;51.082;5.066;2024-03-02T13:46:21;99740.63;;;15.87;80.50
65760;BME280;52496;51.082;5.066;2024-03-02T13:48:52;99746.34;;;15.90;81.13
65760;BME280;52496;51.082;5.066;2024-03-02T13:51:23;99741.97;;;16.23;80.29
65760;BME280;52496;51.082;5.066;2024-03-02T13:53:53;99733.16;;;16.71;82.01
65760;BME280;52496;51.082;5.066;2024-03-02T13:56:24;99734.13;;;17.09;81.52
65760;BME280;52496;51.082;5.066;2024-03-02T13:58:55;99729.97;;;17.56;78.06
65760;BME280;52496;51.082;5.066;2024-03-02T14:01:25;99712.38;;;17.80;72.56
65760;BME280;52496;51.082;5.066;2024-03-02T14:03:56;99717.09;;;18.00;75.13